Disclaimer

Please do not use the information listed here in-flight or in-navigation, as they are not provided to us by the airports but are provided by volunteers, so they might be outdated.

Search


Regions


Airport information page

Radio informations:
CON - 125.45 MHz

Airport informations:
Latitude: 65° 32' 37.53" N
Longitude: 022° 07' 19.16" E
Elevation: 65 feet - 20 meters
Operating hours: Remarks
Operating agency: Military-civil joint use airport
Timezone: UTC+1(+2DT) - Last Sunday in March to last Sunday in October
Fuel: Jet A1, without icing nhibitor.

100/130 MIL Spec, low lead, aviation gasoline (BLUE)

Runway information:
14/32 - 10990 x 148 feet< - >3350 x 45 meters

Recent METARs:
ESPA 191550Z 24003KT CAVOK M02/M04 Q1032
ESPA 191620Z 25001KT CAVOK M02/M04 Q1031
ESPA 191650Z VRB01KT CAVOK M02/M04 Q1031

Airport on the map: